Latest Coastal Weather Observations for Adelaide Airport

IDS60701

Issued at 12:21 pm CST Sunday 26 April 2015 (issued every 10 minutes, with the page automatically refreshed every 10 minutes)

About coastal observations | Map of coastal stations | Coastal observations for SA | Marine services | Other Formats
Station Details ID: 023034 Name: ADELAIDE AIRPORT Lat: -34.95 Lon: 138.52 Height: 2.0 m
Data from the previous 72 hours. | See also: Recent months at Adelaide Airport
Date/Time
CST
Temp

°C
Wind Pressure Rain
since 9am
mm
Weather Cloud Vis
km
Sea
Height
m
Swell
Dir
 
Speed
knots
Gust
knots
hPa Trend Height
m
Period
s
Dir
26/12:00pm 15.9 S 8 10 1024.8 R 0.0 Distant precip. Mostly cloudy 30 - - - -
26/11:53am 15.9 S 7 9 1024.9 - 0.0 - Partly cloudy 10 - - - -
26/11:30am 14.9 SSE 15 18 1025.1 - 0.0 - Partly cloudy 5 - - - -
26/11:00am 15.8 SSW 13 18 1025.1 - 0.0 - Partly cloudy 10 - - - -
26/10:30am 15.1 SSW 13 17 1025.2 - 0.0 - Partly cloudy 10 - - - -
26/09:00am 14.3 SSE 3 5 1025.0 R 0.4 Fine Partly cloudy 30 - - - -
26/08:30am 13.5 CALM 0 0 1024.8 - 0.4 - Mostly clear 10 - - - -
26/08:00am 11.5 SW 3 4 1024.6 - 0.4 - Mostly clear 10 - - - -
26/07:30am 10.9 CALM 0 1 1024.1 - 0.4 - Mostly clear 10 - - - -
26/07:00am 10.1 S 5 6 1023.6 - 0.4 - Mostly clear 10 - - - -
26/06:30am 9.4 S 5 6 1023.3 - 0.4 - Mostly clear 10 - - - -
26/06:00am 8.5 SE 2 3 1022.9 R 0.4 Fine Partly cloudy 30 - - - -
26/05:30am 8.3 SSE 4 5 1022.6 - 0.4 - Mostly clear 10 - - - -
26/05:00am 8.8 S 4 4 1022.5 - 0.4 - Mostly clear 10 - - - -
26/04:30am 8.8 SE 3 3 1022.2 - 0.4 - Mostly clear 10 - - - -
26/04:00am 8.9 S 5 6 1022.0 - 0.4 - Mostly clear 10 - - - -
26/03:30am 9.6 SE 4 4 1021.8 - 0.4 - Mostly clear 10 - - - -
26/02:30am 10.8 SSE 5 6 1022.0 - 0.4 - Mostly clear 10 - - - -
26/01:30am 12.3 S 7 8 1021.8 - 0.4 - Mostly cloudy 10 - - - -
26/01:00am 13.3 S 5 6 1021.5 - 0.4 - Mostly cloudy 10 - - - -
26/12:30am 12.3 S 5 7 1021.4 - 0.4 - Mostly cloudy 10 - - - -
 
Date/Time
CST
Temp

°C
Wind Pressure Rain
since 9am
mm
Weather Cloud Vis
km
Sea
Height
m
Swell
Dir
 
Speed
knots
Gust
knots
hPa Trend Height
m
Period
s
Dir
25/11:30pm 13.7 S 8 10 1021.2 - 0.4 - Mostly clear 10 - - - -
25/11:00pm 13.5 S 8 10 1021.2 - 0.4 - Mostly clear 10 - - - -
25/10:30pm 13.3 S 6 8 1021.1 - 0.4 - Mostly clear 10 - - - -
25/10:00pm 12.2 S 6 8 1020.9 - 0.4 - Mostly clear 10 - - - -
25/09:30pm 12.0 S 6 6 1020.7 - 0.4 - Mostly clear 10 - - - -
25/09:00pm 12.8 S 7 9 1020.4 R 0.4 Fine Mostly clear 25 - - - -
25/08:30pm 13.4 S 9 11 1020.2 - 0.4 - Mostly clear 10 - - - -
25/08:00pm 13.9 S 10 15 1019.9 - 0.4 - Mostly clear 10 - - - -
25/07:30pm 13.8 S 10 14 1019.7 - 0.4 - Mostly clear 10 - - - -
25/07:00pm 14.2 SSW 10 15 1019.3 - 0.4 - Mostly clear 10 - - - -
25/06:30pm 14.3 S 12 17 1018.7 - 0.4 - Mostly clear 10 - - - -
25/06:00pm 14.3 S 9 13 1017.9 R 0.4 Distant precip. Partly cloudy 22 - - - -
25/05:30pm 14.7 S 14 18 1017.5 - 0.4 - Mostly clear 10 - - - -
25/05:00pm 15.4 S 13 18 1017.0 - 0.4 - Partly cloudy 10 - - - -
25/04:30pm 16.1 S 17 24 1016.2 - 0.4 - Partly cloudy 10 - - - -
25/04:00pm 15.8 S 14 21 1016.0 - 0.2 - Partly cloudy 8 - - - -
25/03:30pm 15.8 S 11 14 1015.5 - 0.2 - Mostly clear 10 - - - -
25/03:24pm 15.5 S 13 19 1015.4 - 0.2 - Mostly clear 10 - - - -
25/03:08pm 14.6 S 14 17 1015.3 - 0.2 Showers Mostly clear 5 - - - -
25/03:00pm 14.7 SSW 13 19 1015.3 R 0.2 Showers Mostly cloudy 8 - - - -
25/02:30pm 15.2 SW 13 16 1015.0 - 0.0 Showers Mostly clear 6 - - - -
25/02:00pm 15.7 SW 14 19 1014.7 - 0.0 Showers Partly cloudy 6 - - - -
25/01:30pm 14.9 SW 17 22 1014.6 - 0.0 - Mostly clear 10 - - - -
25/01:00pm 16.1 SSW 14 20 1014.4 - 0.0 Showers Mostly cloudy 10 - - - -
25/12:30pm 16.6 SSW 13 21 1014.4 - 0.0 Showers Partly cloudy 10 - - - -
25/12:00pm 16.3 SW 12 17 1014.6 R 0.0 Distant precip. Mostly cloudy 25 - - - -
25/11:30am 16.7 SW 13 17 1014.6 - 0.0 - Mostly clear 10 - - - -
25/11:00am 16.1 SSW 12 16 1014.6 - 0.0 - Mostly clear 10 - - - -
25/10:30am 15.7 SW 11 15 1014.3 - 0.0 - Partly cloudy 10 - - - -
25/10:00am 15.3 SSW 9 14 1014.1 - 0.0 - Mostly clear 10 - - - -
25/09:30am 13.9 SSW 8 12 1013.8 - 0.0 - Mostly clear 10 - - - -
25/09:00am 13.6 SSW 7 10 1013.5 R 8.6 Fine Partly cloudy 25 - - - -
25/08:30am 12.9 S 6 8 1012.8 - 8.6 - Mostly clear 10 - - - -
25/08:00am 11.9 S 9 14 1012.1 - 8.6 - Mostly clear 10 - - - -
25/07:30am 11.3 S 11 16 1011.2 - 8.6 - Mostly clear 10 - - - -
25/07:00am 10.6 S 7 10 1010.4 - 8.6 - Mostly clear 10 - - - -
25/06:30am 10.5 SSW 9 14 1009.6 - 8.6 - Mostly clear 10 - - - -
25/06:00am 9.9 SSW 8 11 1008.9 R 8.6 Fine Mostly clear 30 - - - -
25/05:30am 9.8 S 9 14 1008.1 - 8.6 - Mostly clear 10 - - - -
25/05:00am 9.7 S 10 14 1007.4 - 8.6 - Mostly clear 10 - - - -
25/04:30am 9.6 S 10 14 1006.7 - 8.6 - Mostly clear 10 - - - -
25/04:00am 9.6 S 11 15 1005.9 - 8.6 - Mostly clear 10 - - - -
25/03:30am 9.3 S 10 15 1005.0 - 8.6 - Mostly clear 10 - - - -
25/03:00am 10.0 SSW 7 10 1003.7 R 8.6 Fine Partly cloudy 30 - - - -
25/02:30am 8.9 S 7 8 1002.7 - 8.6 - Mostly clear 10 - - - -
25/02:00am 9.2 ESE 4 5 1001.9 - 8.6 - Mostly clear 10 - - - -
25/01:30am 9.8 SE 7 10 1001.7 - 8.4 - Mostly clear 10 - - - -
25/01:00am 10.1 ENE 8 13 1001.3 - 8.0 Showers Mostly cloudy 10 - - - -
25/12:30am 9.8 NE 10 15 1001.5 - 8.0 Showers Partly cloudy 9 - - - -
25/12:08am 9.6 N 16 22 1001.5 - 7.6 Showers Mostly clear 5 - - - -
25/12:00am 9.6 NNE 18 22 1001.3 F 7.2 Showers Cloudy 8 - - - -
 
Date/Time
CST
Temp

°C
Wind Pressure Rain
since 9am
mm
Weather Cloud Vis
km
Sea
Height
m
Swell
Dir
 
Speed
knots
Gust
knots
hPa Trend Height
m
Period
s
Dir
24/11:30pm 11.2 NNE 16 20 1001.7 - 7.2 - Mostly clear 10 - - - -
24/11:00pm 12.6 N 13 17 1002.6 - 6.8 Showers Mostly clear 10 - - - -
24/10:30pm 13.1 NNW 16 21 1002.9 - 6.8 - Mostly clear 10 - - - -
24/10:00pm 12.5 NNW 16 24 1003.2 - 6.8 - Mostly clear 10 - - - -
24/09:30pm 13.0 NNW 15 20 1003.9 - 6.6 - Mostly clear 10 - - - -
24/09:00pm 12.3 NNW 17 24 1004.1 F 6.6 Recent precip. Cloudy 30 - - - -
24/08:30pm 11.8 NW 23 31 1004.7 - 6.6 Showers Mostly clear 10 - - - -
24/08:23pm 11.7 NNW 20 31 1004.7 - 6.4 Showers Mostly clear 9 - - - -
24/08:00pm 11.2 NNW 17 25 1005.2 - 5.2 Showers Mostly clear 3 - - - -
24/07:52pm 12.7 NNW 16 22 1005.3 - 3.4 Showers Mostly clear 3 - - - -
24/07:30pm 13.0 N 14 17 1005.7 - 2.8 Showers Mostly clear 10 - - - -
24/07:00pm 13.3 NW 17 23 1006.0 - 2.8 - Mostly clear 10 - - - -
24/06:30pm 13.6 NW 19 30 1006.5 - 2.8 - Partly cloudy 10 - - - -
24/06:00pm 13.4 WNW 17 22 1006.6 F 2.8 Recent precip. Mostly cloudy 18 - - - -
24/05:30pm 13.2 WNW 16 21 1006.7 - 2.8 Showers Mostly cloudy 5 - - - -
24/05:00pm 14.2 WNW 17 22 1007.1 - 2.6 - Partly cloudy 10 - - - -
24/04:30pm 14.7 WNW 19 27 1007.2 - 2.6 - Partly cloudy 10 - - - -
24/04:00pm 15.5 W 18 22 1007.1 - 2.6 - Partly cloudy 10 - - - -
24/03:30pm 15.9 W 17 21 1007.2 - 2.6 - Partly cloudy 10 - - - -
24/03:00pm 15.7 W 15 20 1007.3 R 2.6 Distant precip. Mostly cloudy 25 - - - -
24/02:30pm 16.2 W 18 24 1007.3 - 2.6 - Partly cloudy 10 - - - -
24/02:00pm 16.6 W 19 25 1007.3 - 2.6 - Mostly cloudy 10 - - - -
24/01:30pm 15.6 WSW 18 23 1007.3 - 2.6 - Mostly cloudy 10 - - - -
24/01:00pm 14.8 W 17 22 1007.5 - 2.6 - Partly cloudy 10 - - - -
24/12:30pm 15.0 W 17 21 1007.9 - 2.6 - Partly cloudy 10 - - - -
24/12:00pm 14.4 W 16 21 1008.2 R 2.6 Recent precip. Mostly cloudy 12 - - - -
24/11:30am 13.9 W 16 22 1008.4 - 2.4 - Mostly clear 9 - - - -
24/11:00am 13.3 W 19 26 1008.7 - 2.2 Showers Mostly clear 9 - - - -
24/10:39am 12.5 WSW 23 33 1008.7 - 2.2 Showers Partly cloudy 8 - - - -
24/10:30am 13.6 WSW 23 30 1008.4 - 2.2 - Partly cloudy 9 - - - -
24/10:20am 13.5 W 24 31 1008.3 - 2.2 - Mostly clear 10 - - - -
24/10:00am 13.5 WSW 18 31 1008.1 - 2.2 - Partly cloudy 6 - - - -
24/09:58am 13.5 WSW 17 28 1008.1 - 2.2 - Partly cloudy 5 - - - -
24/09:52am 13.3 W 17 24 1008.2 - 2.2 Showers Mostly clear 5 - - - -
24/09:47am 13.9 W 19 24 1008.5 - 0.4 Showers Mostly clear 2 - - - -
24/09:45am 14.0 NNW 18 24 1008.4 - 0.0 Showers Mostly clear 5 - - - -
24/09:30am 16.3 NNW 15 22 1007.8 - 0.0 - Mostly clear 10 - - - -
24/09:00am 15.3 N 14 18 1007.9 F 1.0 Showers Mostly cloudy 8 - - - -
24/08:30am 14.8 N 14 20 1007.9 - 1.0 - Mostly clear 8 - - - -
24/08:24am 14.7 N 15 20 1007.9 - 1.0 - Mostly clear 8 - - - -
24/08:09am 14.3 NNW 17 21 1008.1 - 1.0 Showers Mostly clear 5 - - - -
24/08:00am 14.3 NNW 17 24 1008.2 - 0.8 Showers Partly cloudy 3 - - - -
24/07:50am 15.2 N 10 13 1008.0 - 0.0 Showers Partly cloudy 4 - - - -
24/07:47am 14.9 N 10 13 1008.0 - 0.0 Showers Partly cloudy 6 - - - -
24/07:30am 14.3 N 11 14 1007.8 - 0.0 - Partly cloudy 10 - - - -
24/07:00am 14.5 N 11 15 1007.9 - 0.0 Showers Partly cloudy 10 - - - -
24/06:30am 14.8 N 10 12 1008.3 - 0.0 Showers Mostly clear 10 - - - -
24/06:00am 15.3 N 9 11 1008.4 F 0.0 Fine Cloudy 30 - - - -
24/05:30am 14.1 N 5 7 1008.5 - 0.0 - Partly cloudy 10 - - - -
24/05:00am 14.6 N 5 5 1008.6 - 0.0 - Mostly clear 10 - - - -
24/04:30am 15.0 NNW 6 7 1008.5 - 0.0 - Mostly clear 10 - - - -
24/04:00am 15.4 WNW 6 7 1008.9 - 0.0 - Mostly clear 10 - - - -
24/03:30am 15.6 W 9 13 1009.5 - 0.0 - Mostly clear 10 - - - -
24/03:00am 15.5 W 10 14 1009.6 F 0.0 Recent precip. Cloudy 30 - - - -
24/02:30am 15.9 WNW 9 12 1010.2 - 0.0 Showers Mostly clear 10 - - - -
24/02:00am 16.1 W 6 7 1010.4 - 0.0 - Mostly clear 10 - - - -
24/01:30am 16.1 W 8 9 1010.7 - 0.0 - Mostly clear 10 - - - -
24/01:00am 16.3 W 7 9 1010.9 - 0.0 - Mostly cloudy 10 - - - -
24/12:30am 16.1 W 7 9 1011.2 - 0.0 - Partly cloudy 10 - - - -
24/12:00am 16.0 W 7 9 1011.6 F 0.0 Fine Cloudy 30 - - - -
 
Date/Time
CST
Temp

°C
Wind Pressure Rain
since 9am
mm
Weather Cloud Vis
km
Sea
Height
m
Swell
Dir
 
Speed
knots
Gust
knots
hPa Trend Height
m
Period
s
Dir
23/11:30pm 16.1 W 4 5 1012.0 - 0.0 - Mostly cloudy 10 - - - -
23/11:00pm 16.0 SW 3 5 1012.3 - 0.0 - Partly cloudy 10 - - - -
23/10:30pm 16.0 SW 2 4 1013.0 - 0.0 - Partly cloudy 10 - - - -
23/10:00pm 16.1 CALM 0 0 1013.0 - 0.0 - Partly cloudy 10 - - - -
23/09:30pm 16.0 CALM 0 0 1013.3 - 0.0 - Partly cloudy 10 - - - -
23/09:00pm 15.4 SW 3 5 1013.5 F 0.0 Fine Cloudy 30 - - - -
23/08:30pm 15.1 ENE 4 4 1013.7 - 0.0 - Partly cloudy 10 - - - -
23/08:00pm 14.8 CALM 0 0 1013.7 - 0.0 - Mostly cloudy 10 - - - -
23/07:30pm 15.3 CALM 0 0 1013.9 - 0.0 - - 10 - - - -
23/07:00pm 15.7 CALM 0 0 1014.1 - 0.0 - Mostly clear 10 - - - -
23/06:30pm 15.8 SW 7 7 1014.1 - 0.0 - Mostly clear 10 - - - -
23/06:00pm 15.5 SW 2 5 1014.0 F 0.0 Smoke Mostly cloudy 20 - - - -
23/05:30pm 15.8 S 2 4 1014.1 - 0.0 - Mostly clear 10 - - - -
23/05:00pm 16.0 W 5 7 1014.2 - 0.0 - Mostly clear 10 - - - -
23/04:30pm 16.2 W 7 8 1014.3 - 0.0 - Mostly clear 10 - - - -
23/04:00pm 16.3 W 8 9 1014.3 - 0.0 - Mostly clear 10 - - - -
23/03:30pm 17.0 W 8 10 1014.5 - 0.0 - Mostly clear 10 - - - -
23/03:00pm 17.4 WSW 8 11 1014.5 F 0.0 Haze Partly cloudy 20 - - - -
23/02:30pm 17.7 W 7 10 1014.7 - 0.0 - Mostly clear 10 - - - -
23/02:00pm 18.4 W 6 8 1014.9 - 0.0 - Mostly clear 10 - - - -
23/01:30pm 17.0 W 7 8 1015.4 - 0.0 - Mostly clear 10 - - - -
23/01:00pm 16.2 W 6 7 1015.8 - 0.0 - Mostly clear 10 - - - -
23/12:30pm 16.0 SSW 4 6 1015.8 - 0.0 - Mostly clear 10 - - - -

Other Formats:

Comma delimited format used in spreadsheet applications
http://www.bom.gov.au/fwo/IDS60701/IDS60701.94672.axf

JavaScript Object Notation format (JSON) in row-major order
http://www.bom.gov.au/fwo/IDS60701/IDS60701.94672.json